createdAt,value
2019-02-22T00:02:24.785Z,7.07
2019-02-22T00:04:52.105Z,7.10
2019-02-22T00:07:19.214Z,7.97
2019-02-22T00:09:49.437Z,7.00
2019-02-22T00:12:15.043Z,7.03
2019-02-22T00:14:42.278Z,7.73
2019-02-22T00:17:09.572Z,6.47
2019-02-22T00:19:36.733Z,6.77
2019-02-22T00:22:03.826Z,6.67
2019-02-22T00:24:31.124Z,6.63
2019-02-22T00:26:58.388Z,7.03
2019-02-22T00:29:25.709Z,6.67
2019-02-22T00:31:52.800Z,6.03
2019-02-22T00:34:20.087Z,6.27
2019-02-22T00:36:47.169Z,6.60
2019-02-22T00:39:14.328Z,6.83
2019-02-22T00:41:41.529Z,6.50
2019-02-22T00:44:08.692Z,7.13
2019-02-22T00:46:37.197Z,6.70
2019-02-22T00:49:04.319Z,6.60
2019-02-22T00:51:31.407Z,7.30
2019-02-22T00:53:58.485Z,6.33
2019-02-22T00:56:25.795Z,6.13
2019-02-22T00:58:52.849Z,5.77
2019-02-22T01:01:19.930Z,6.40
2019-02-22T01:03:47.131Z,5.90
2019-02-22T01:06:14.214Z,6.90
2019-02-22T01:08:41.328Z,6.13
2019-02-22T01:11:08.448Z,6.23
2019-02-22T01:13:35.743Z,5.50
2019-02-22T01:16:02.825Z,5.87
2019-02-22T01:18:29.881Z,6.13
2019-02-22T01:20:56.974Z,5.50
2019-02-22T01:23:24.036Z,6.60
2019-02-22T01:25:51.166Z,5.83
2019-02-22T01:28:18.430Z,6.30
2019-02-22T01:30:45.537Z,6.10
2019-02-22T01:33:12.595Z,6.10
2019-02-22T01:35:39.683Z,5.77
2019-02-22T01:38:06.767Z,6.27
2019-02-22T01:40:43.236Z,6.10
2019-02-22T01:43:02.749Z,6.03
2019-02-22T01:45:29.984Z,6.20
2019-02-22T01:47:57.064Z,6.50
2019-02-22T01:50:24.214Z,6.30
2019-02-22T01:52:51.296Z,6.00
2019-02-22T01:55:18.387Z,6.33
2019-02-22T01:57:45.435Z,6.10
2019-02-22T02:00:12.528Z,5.63
2019-02-22T02:02:39.619Z,6.00
2019-02-22T02:05:06.710Z,6.80
2019-02-22T02:07:33.782Z,6.27
2019-02-22T02:10:00.854Z,5.93
2019-02-22T02:12:27.912Z,5.90
2019-02-22T02:14:55.189Z,6.27
2019-02-22T02:17:22.289Z,6.63
2019-02-22T02:19:49.373Z,6.20
2019-02-22T02:22:16.520Z,6.47
2019-02-22T02:24:43.614Z,6.47
2019-02-22T02:27:10.674Z,6.90
2019-02-22T02:29:37.766Z,5.57
2019-02-22T02:32:04.823Z,6.50
2019-02-22T02:34:32.021Z,6.53
2019-02-22T02:36:59.077Z,6.60
2019-02-22T02:39:26.199Z,6.43
2019-02-22T02:41:53.344Z,6.87
2019-02-22T02:44:20.426Z,6.00
2019-02-22T02:46:47.637Z,6.00
2019-02-22T02:49:14.697Z,5.93
2019-02-22T02:51:41.792Z,6.10
2019-02-22T02:54:08.981Z,6.00
2019-02-22T02:56:36.037Z,5.50
2019-02-22T02:59:03.127Z,6.23
2019-02-22T03:01:30.216Z,6.37
2019-02-22T03:03:57.384Z,6.43
2019-02-22T03:06:24.436Z,5.97
2019-02-22T03:08:51.512Z,5.87
2019-02-22T03:11:20.958Z,5.97
2019-02-22T03:13:47.364Z,5.37
2019-02-22T03:16:14.456Z,5.60
2019-02-22T03:18:41.543Z,5.70
2019-02-22T03:21:08.636Z,5.60
2019-02-22T03:23:35.691Z,6.67
2019-02-22T03:26:02.853Z,5.63
2019-02-22T03:28:29.935Z,6.10
2019-02-22T03:30:57.107Z,5.93
2019-02-22T03:33:24.418Z,5.53
2019-02-22T03:35:51.485Z,6.43
2019-02-22T03:38:18.592Z,6.10
2019-02-22T03:40:45.718Z,6.03
2019-02-22T03:43:12.786Z,5.83
2019-02-22T03:45:39.877Z,6.17
2019-02-22T03:48:07.046Z,5.57
2019-02-22T03:50:34.107Z,6.10
2019-02-22T03:53:01.157Z,6.57
2019-02-22T03:55:28.460Z,5.70
2019-02-22T03:57:55.518Z,6.27
2019-02-22T04:00:22.623Z,5.40
2019-02-22T04:02:49.697Z,5.33
2019-02-22T04:05:16.851Z,6.20
2019-02-22T04:07:43.905Z,5.97
2019-02-22T04:10:11.019Z,5.37
2019-02-22T04:12:38.082Z,5.70
2019-02-22T04:15:05.250Z,5.80
2019-02-22T04:17:32.325Z,5.10
2019-02-22T04:19:59.412Z,6.00
2019-02-22T04:22:26.469Z,5.60
2019-02-22T04:24:53.633Z,5.70
2019-02-22T04:27:20.879Z,5.40
2019-02-22T04:29:47.969Z,5.30
2019-02-22T04:32:15.312Z,5.80
2019-02-22T04:34:42.458Z,5.67
2019-02-22T04:37:09.509Z,5.50
2019-02-22T04:39:36.612Z,5.30
2019-02-22T04:42:03.782Z,5.50
2019-02-22T04:44:30.912Z,5.77
2019-02-22T04:46:58.043Z,5.33
2019-02-22T04:49:25.127Z,5.03
2019-02-22T04:51:52.195Z,5.50
2019-02-22T04:54:19.443Z,6.20
2019-02-22T04:56:46.521Z,5.73
2019-02-22T04:59:13.586Z,5.53
2019-02-22T05:01:40.658Z,5.37
2019-02-22T05:04:07.715Z,5.30
2019-02-22T05:06:34.882Z,5.63
2019-02-22T05:09:01.978Z,5.73
2019-02-22T05:11:29.071Z,5.40
2019-02-22T05:13:56.136Z,5.70
2019-02-22T05:16:23.288Z,5.70
2019-02-22T05:18:50.357Z,5.57
2019-02-22T05:21:17.454Z,5.67
2019-02-22T05:23:44.636Z,6.00
2019-02-22T05:26:11.691Z,5.73
2019-02-22T05:28:38.768Z,6.07
2019-02-22T05:31:05.855Z,6.10
2019-02-22T05:33:32.925Z,5.67
2019-02-22T05:36:00.076Z,6.60
2019-02-22T05:38:27.172Z,14.70
2019-02-22T05:40:54.244Z,12.78
2019-02-22T05:43:21.336Z,10.73
2019-02-22T05:45:48.424Z,9.30
2019-02-22T05:48:15.510Z,8.20
2019-02-22T05:50:42.745Z,8.10
2019-02-22T05:53:10.024Z,7.43
2019-02-22T05:55:37.077Z,7.97
2019-02-22T05:58:04.179Z,7.30
2019-02-22T06:00:31.282Z,7.40
2019-02-22T06:02:58.411Z,6.80
2019-02-22T06:05:25.669Z,6.13
2019-02-22T06:07:52.726Z,7.10
2019-02-22T06:10:19.793Z,7.33
2019-02-22T06:12:47.099Z,6.30
2019-02-22T06:15:14.486Z,5.83
2019-02-22T06:17:41.560Z,6.30
2019-02-22T06:20:08.612Z,6.90
2019-02-22T06:22:35.986Z,6.53
2019-02-22T06:25:05.172Z,6.93
2019-02-22T06:27:32.279Z,7.20
2019-02-22T06:29:59.407Z,6.87
2019-02-22T06:32:26.497Z,6.50
2019-02-22T06:34:53.560Z,7.43
2019-02-22T06:37:20.761Z,6.83
2019-02-22T06:39:48.167Z,7.17
2019-02-22T06:42:15.385Z,7.40
2019-02-22T06:44:42.484Z,6.53
2019-02-22T06:47:10.213Z,6.53
2019-02-22T06:49:37.308Z,6.60
2019-02-22T06:52:04.419Z,6.53
2019-02-22T06:54:31.485Z,6.47
2019-02-22T06:56:58.546Z,6.03
2019-02-22T06:59:25.840Z,5.80
2019-02-22T07:01:52.914Z,6.23
2019-02-22T07:04:19.979Z,5.83
2019-02-22T07:06:47.185Z,7.10
2019-02-22T07:09:14.280Z,6.70
2019-02-22T07:11:41.377Z,6.10
2019-02-22T07:14:08.489Z,6.13
2019-02-22T07:16:35.545Z,6.63
2019-02-22T07:19:02.643Z,6.47
2019-02-22T07:21:40.389Z,6.90
2019-02-22T07:23:58.501Z,6.73
2019-02-22T07:26:25.566Z,6.70
2019-02-22T07:28:52.632Z,7.07
2019-02-22T07:31:19.748Z,7.00
2019-02-22T07:33:47.092Z,6.13
2019-02-22T07:36:14.430Z,6.47
2019-02-22T07:38:41.479Z,6.60
2019-02-22T07:41:08.560Z,6.53
2019-02-22T07:43:35.624Z,5.87
2019-02-22T07:46:02.684Z,6.90
2019-02-22T07:48:29.813Z,6.63
2019-02-22T07:50:58.456Z,6.27
2019-02-22T07:53:25.803Z,5.93
2019-02-22T07:55:52.858Z,6.57
2019-02-22T07:58:19.962Z,6.20
2019-02-22T08:00:47.296Z,6.50
2019-02-22T08:03:14.397Z,6.20
2019-02-22T08:05:41.454Z,7.60
2019-02-22T08:08:08.554Z,6.57
2019-02-22T08:10:35.603Z,7.07
2019-02-22T08:13:02.697Z,6.67
2019-02-22T08:15:29.748Z,6.53
2019-02-22T08:17:56.843Z,7.00
2019-02-22T08:20:23.940Z,7.10
2019-02-22T08:22:50.996Z,6.50
2019-02-22T08:25:18.411Z,6.30
2019-02-22T08:27:53.824Z,6.30
2019-02-22T08:30:14.301Z,5.80
2019-02-22T08:32:41.358Z,7.27
2019-02-22T08:35:08.489Z,7.30
2019-02-22T08:37:35.574Z,6.30
2019-02-22T08:40:02.756Z,6.87
2019-02-22T08:42:30.019Z,6.70
2019-02-22T08:44:57.120Z,6.10
2019-02-22T08:47:24.230Z,7.40
2019-02-22T08:49:51.372Z,7.13
2019-02-22T08:52:18.467Z,6.70
2019-02-22T08:54:47.297Z,6.37
2019-02-22T08:57:14.332Z,7.30
2019-02-22T08:59:41.396Z,6.90
2019-02-22T09:02:08.447Z,6.73
2019-02-22T09:04:35.732Z,7.00
2019-02-22T09:07:02.820Z,6.80
2019-02-22T09:09:29.878Z,7.13
2019-02-22T09:11:57.825Z,6.20
2019-02-22T09:14:25.139Z,6.73
2019-02-22T09:16:52.360Z,6.90
2019-02-22T09:19:19.449Z,6.90
2019-02-22T09:21:46.549Z,6.50
2019-02-22T09:24:13.655Z,6.97
2019-02-22T09:26:40.783Z,7.23
2019-02-22T09:29:07.847Z,6.47
2019-02-22T09:31:34.944Z,7.10
2019-02-22T09:34:02.315Z,6.60
2019-02-22T09:36:29.591Z,5.87
2019-02-22T09:38:56.657Z,6.60
2019-02-22T09:41:23.744Z,6.37
2019-02-22T09:43:55.063Z,6.30
2019-02-22T09:46:19.720Z,5.83
2019-02-22T09:48:47.058Z,6.00
2019-02-22T09:51:14.248Z,6.53
2019-02-22T09:53:41.290Z,6.77
2019-02-22T09:56:08.388Z,5.87
2019-02-22T09:58:35.463Z,6.13
2019-02-22T10:01:02.565Z,6.47
2019-02-22T10:03:29.627Z,6.40
2019-02-22T10:05:56.687Z,5.73
2019-02-22T10:08:23.780Z,6.20
2019-02-22T10:10:50.869Z,5.80
2019-02-22T10:13:18.166Z,6.03
2019-02-22T10:15:45.255Z,6.20
2019-02-22T10:18:12.309Z,5.50
2019-02-22T10:20:39.395Z,5.60
2019-02-22T10:23:06.566Z,5.57
2019-02-22T10:25:33.659Z,5.20
2019-02-22T10:28:00.708Z,4.83
2019-02-22T10:30:27.812Z,5.70
2019-02-22T10:32:54.876Z,5.43
2019-02-22T10:35:22.013Z,5.50
2019-02-22T10:37:49.075Z,4.97
2019-02-22T10:40:16.237Z,5.20
2019-02-22T10:42:43.319Z,5.60
2019-02-22T10:45:10.483Z,4.80
2019-02-22T10:47:37.581Z,5.40
2019-02-22T10:50:05.206Z,5.20
2019-02-22T10:52:34.350Z,5.27
2019-02-22T10:55:01.665Z,4.97
2019-02-22T10:57:28.725Z,5.60
2019-02-22T10:59:55.825Z,4.77
2019-02-22T11:02:23.762Z,4.90
2019-02-22T11:04:50.897Z,5.93
2019-02-22T11:07:18.149Z,5.40
2019-02-22T11:09:45.241Z,5.60
2019-02-22T11:12:12.308Z,5.50
2019-02-22T11:14:39.510Z,3.93
2019-02-22T11:17:06.595Z,4.83
2019-02-22T11:19:33.710Z,4.80
2019-02-22T11:22:00.875Z,4.80
2019-02-22T11:24:28.064Z,4.60
2019-02-22T11:26:55.150Z,4.27
2019-02-22T11:29:22.299Z,5.10
2019-02-22T11:31:49.397Z,5.10
2019-02-22T11:34:16.448Z,4.80
2019-02-22T11:36:43.726Z,4.67
2019-02-22T11:39:10.841Z,5.50
2019-02-22T11:41:37.923Z,3.87
2019-02-22T11:44:05.062Z,4.60
2019-02-22T11:46:32.165Z,4.00
2019-02-22T11:48:59.328Z,4.10
2019-02-22T11:51:26.420Z,5.40
2019-02-22T11:53:53.700Z,3.97
2019-02-22T11:56:20.938Z,3.80
2019-02-22T11:58:48.113Z,3.90
2019-02-22T12:01:15.198Z,3.87
2019-02-22T12:03:42.299Z,4.20
2019-02-22T12:06:09.493Z,4.80
2019-02-22T12:08:36.544Z,4.13
2019-02-22T12:11:03.691Z,4.53
2019-02-22T12:13:32.041Z,4.30
2019-02-22T12:15:59.562Z,4.53
2019-02-22T12:18:26.755Z,3.43
2019-02-22T12:20:53.875Z,3.90
2019-02-22T12:23:20.985Z,4.10
2019-02-22T12:25:48.217Z,5.30
2019-02-22T12:28:15.275Z,3.80
2019-02-22T12:30:42.352Z,4.23
2019-02-22T12:33:09.509Z,4.07
2019-02-22T12:35:36.689Z,4.00
2019-02-22T12:38:03.741Z,4.17
2019-02-22T12:40:30.994Z,3.50
2019-02-22T12:42:58.071Z,4.43
2019-02-22T12:45:25.373Z,3.70
2019-02-22T12:47:52.447Z,3.57
2019-02-22T12:50:19.510Z,3.97
2019-02-22T12:52:46.596Z,3.80
2019-02-22T12:55:13.690Z,3.40
2019-02-22T12:57:40.793Z,4.20
2019-02-22T13:00:07.895Z,4.00
2019-02-22T13:02:35.036Z,4.10
2019-02-22T13:05:02.160Z,3.37
2019-02-22T13:07:29.211Z,3.80
2019-02-22T13:09:56.303Z,3.57
2019-02-22T13:12:23.394Z,3.67
2019-02-22T13:14:50.453Z,3.73
2019-02-22T13:17:17.873Z,3.17
2019-02-22T13:19:44.931Z,3.50
2019-02-22T13:22:12.102Z,3.47
2019-02-22T13:24:39.358Z,3.27
2019-02-22T13:27:06.416Z,3.20
2019-02-22T13:29:33.493Z,3.37
2019-02-22T13:32:00.573Z,3.80
2019-02-22T13:34:27.754Z,3.23
2019-02-22T13:36:54.853Z,3.40
2019-02-22T13:39:21.933Z,3.20
2019-02-22T13:41:49.063Z,3.20
2019-02-22T13:44:16.288Z,3.33
2019-02-22T13:46:43.418Z,3.50
2019-02-22T13:49:10.526Z,3.20
2019-02-22T13:51:37.693Z,3.10
2019-02-22T13:54:04.974Z,2.93
2019-02-22T13:56:32.147Z,3.30
2019-02-22T13:58:59.327Z,3.33
2019-02-22T14:01:26.459Z,3.60
2019-02-22T14:03:53.550Z,2.70
2019-02-22T14:06:20.641Z,3.23
2019-02-22T14:08:48.116Z,3.10
2019-02-22T14:11:15.315Z,2.73
2019-02-22T14:13:42.624Z,2.87
2019-02-22T14:16:09.681Z,3.03
2019-02-22T14:18:36.784Z,3.03
2019-02-22T14:21:03.865Z,2.90
2019-02-22T14:23:31.052Z,3.60
2019-02-22T14:25:59.242Z,3.10
2019-02-22T14:28:26.418Z,2.67
2019-02-22T14:30:53.483Z,2.77
2019-02-22T14:33:20.847Z,2.50
2019-02-22T14:35:48.174Z,2.50
2019-02-22T14:38:15.275Z,2.77
2019-02-22T14:40:42.547Z,3.30
2019-02-22T14:43:16.634Z,2.80
2019-02-22T14:45:48.525Z,3.17
2019-02-22T14:48:07.174Z,3.30
2019-02-22T14:50:34.304Z,3.30
2019-02-22T14:53:01.471Z,2.77
2019-02-22T14:55:28.531Z,2.87
2019-02-22T14:57:55.623Z,3.10
2019-02-22T15:00:22.863Z,2.50
2019-02-22T15:02:49.914Z,3.03
2019-02-22T15:05:17.124Z,2.80
2019-02-22T15:07:44.190Z,3.23
2019-02-22T15:10:11.277Z,2.57
2019-02-22T15:12:38.346Z,2.67
2019-02-22T15:15:05.531Z,2.90
2019-02-22T15:17:32.582Z,3.13
2019-02-22T15:19:59.674Z,2.67
2019-02-22T15:22:26.746Z,2.67
2019-02-22T15:24:53.922Z,2.20
2019-02-22T15:27:21.062Z,2.20
2019-02-22T15:29:48.127Z,3.20
2019-02-22T15:32:15.962Z,2.63
2019-02-22T15:34:43.071Z,2.40
2019-02-22T15:37:10.171Z,3.00
2019-02-22T15:39:37.240Z,2.60
2019-02-22T15:42:04.333Z,3.00
2019-02-22T15:44:31.423Z,2.40
2019-02-22T15:46:58.558Z,2.50
2019-02-22T15:49:25.852Z,2.40
2019-02-22T15:51:52.925Z,2.30
2019-02-22T15:54:19.996Z,2.33
2019-02-22T15:56:47.182Z,2.40
2019-02-22T15:59:14.249Z,2.73
2019-02-22T16:01:41.310Z,2.50
2019-02-22T16:04:08.512Z,2.67
2019-02-22T16:06:35.615Z,2.37
2019-02-22T16:09:02.711Z,2.63
2019-02-22T16:11:29.798Z,2.80
2019-02-22T16:13:56.855Z,2.27
2019-02-22T16:16:23.978Z,2.90
2019-02-22T16:18:51.054Z,2.40
2019-02-22T16:21:18.119Z,2.13
2019-02-22T16:23:45.318Z,2.47
2019-02-22T16:26:12.375Z,2.07
2019-02-22T16:28:39.475Z,2.60
2019-02-22T16:31:06.561Z,2.07
2019-02-22T16:33:33.619Z,2.60
2019-02-22T16:36:00.753Z,2.30
2019-02-22T16:38:27.814Z,2.37
2019-02-22T16:40:54.933Z,2.80
2019-02-22T16:43:24.382Z,2.17
2019-02-22T16:45:51.620Z,2.30
2019-02-22T16:48:18.707Z,2.43
2019-02-22T16:50:45.790Z,2.93
2019-02-22T16:53:12.962Z,2.53
2019-02-22T16:55:40.010Z,2.63
2019-02-22T16:58:07.102Z,2.03
2019-02-22T17:00:34.193Z,2.20
2019-02-22T17:03:01.296Z,2.30
2019-02-22T17:05:29.415Z,2.57
2019-02-22T17:07:56.652Z,2.20
2019-02-22T17:10:23.747Z,2.67
2019-02-22T17:12:51.311Z,2.20
2019-02-22T17:15:18.433Z,2.10
2019-02-22T17:17:45.567Z,2.07
2019-02-22T17:20:12.637Z,2.60
2019-02-22T17:22:39.736Z,2.10
2019-02-22T17:25:06.834Z,1.97
2019-02-22T17:27:34.174Z,2.47
2019-02-22T17:30:01.260Z,1.60
2019-02-22T17:32:28.997Z,2.10
2019-02-22T17:34:56.198Z,1.90
2019-02-22T17:37:23.355Z,2.10
2019-02-22T17:39:50.511Z,2.23
2019-02-22T17:42:17.620Z,2.17
2019-02-22T17:44:44.716Z,2.37
2019-02-22T17:47:11.897Z,1.93
2019-02-22T17:49:38.996Z,2.40
2019-02-22T17:52:06.081Z,1.90
2019-02-22T17:54:33.142Z,2.23
2019-02-22T17:57:00.439Z,2.10
2019-02-22T17:59:27.523Z,2.10
2019-02-22T18:01:54.592Z,2.57
2019-02-22T18:04:21.846Z,2.17
2019-02-22T18:06:49.239Z,2.90
2019-02-22T18:09:16.352Z,2.37
2019-02-22T18:11:43.431Z,2.13
2019-02-22T18:14:13.598Z,2.40
2019-02-22T18:16:40.712Z,2.00
2019-02-22T18:19:07.838Z,2.67
2019-02-22T18:21:34.916Z,2.37
2019-02-22T18:24:02.180Z,2.43
2019-02-22T18:26:29.265Z,2.70
2019-02-22T18:28:56.387Z,2.37
2019-02-22T18:31:23.702Z,1.93
2019-02-22T18:33:50.918Z,2.00
2019-02-22T18:36:17.978Z,2.50
2019-02-22T18:38:45.069Z,2.40
2019-02-22T18:41:12.415Z,2.00
2019-02-22T18:43:39.510Z,2.33
2019-02-22T18:46:06.770Z,2.30
2019-02-22T18:48:33.864Z,2.10
2019-02-22T18:51:00.965Z,2.67
2019-02-22T18:53:28.199Z,2.20
2019-02-22T18:55:55.372Z,1.90
2019-02-22T18:58:24.605Z,2.17
2019-02-22T19:00:51.729Z,2.30
2019-02-22T19:03:18.838Z,2.53
2019-02-22T19:05:46.033Z,2.10
2019-02-22T19:08:13.130Z,2.30
2019-02-22T19:10:40.201Z,2.10
2019-02-22T19:13:07.431Z,2.17
2019-02-22T19:15:34.488Z,3.00
2019-02-22T19:18:01.733Z,2.30
2019-02-22T19:20:28.789Z,2.63
2019-02-22T19:22:55.999Z,2.87
2019-02-22T19:25:23.084Z,2.60
2019-02-22T19:27:50.239Z,2.50
2019-02-22T19:30:17.304Z,2.50
2019-02-22T19:32:44.499Z,2.47
2019-02-22T19:35:11.552Z,2.47
2019-02-22T19:37:38.754Z,2.40
2019-02-22T19:40:05.872Z,2.40
2019-02-22T19:42:33.079Z,2.30
2019-02-22T19:45:00.341Z,2.10
2019-02-22T19:47:28.236Z,2.40
2019-02-22T19:49:56.812Z,2.50
2019-02-22T19:52:24.199Z,2.63
2019-02-22T19:54:51.300Z,2.30
2019-02-22T19:57:22.971Z,2.33
2019-02-22T19:59:51.051Z,2.07
2019-02-22T20:02:18.707Z,2.30
2019-02-22T20:04:46.017Z,2.20
2019-02-22T20:07:13.111Z,2.37
2019-02-22T20:09:40.221Z,2.57
2019-02-22T20:12:07.266Z,2.17
2019-02-22T20:14:34.424Z,2.50
2019-02-22T20:17:01.556Z,2.70
2019-02-22T20:19:28.655Z,2.40
2019-02-22T20:21:55.793Z,2.47
2019-02-22T20:24:22.872Z,2.27
2019-02-22T20:26:50.108Z,2.40
2019-02-22T20:29:17.162Z,2.20
2019-02-22T20:31:44.220Z,2.30
2019-02-22T20:34:11.407Z,2.60
2019-02-22T20:36:38.807Z,2.50
2019-02-22T20:39:05.917Z,2.53
2019-02-22T20:41:33.718Z,2.43
2019-02-22T20:44:00.968Z,2.63
2019-02-22T20:46:28.090Z,2.70
2019-02-22T20:49:00.867Z,2.67
2019-02-22T20:51:23.955Z,2.67
2019-02-22T20:53:51.050Z,2.30
2019-02-22T20:56:18.761Z,2.60
2019-02-22T20:58:45.910Z,2.63
2019-02-22T21:01:14.936Z,2.30
2019-02-22T21:03:41.758Z,2.50
2019-02-22T21:06:09.821Z,2.37
2019-02-22T21:08:37.045Z,2.77
2019-02-22T21:11:04.129Z,2.50
2019-02-22T21:13:31.341Z,2.77
2019-02-22T21:15:58.763Z,2.37
2019-02-22T21:18:25.849Z,2.63
2019-02-22T21:20:52.936Z,3.03
2019-02-22T21:23:20.001Z,2.77
2019-02-22T21:25:47.185Z,2.87
2019-02-22T21:28:14.407Z,2.77
2019-02-22T21:30:41.710Z,2.77
2019-02-22T21:33:08.961Z,2.73
2019-02-22T21:35:36.027Z,3.00
2019-02-22T21:38:03.159Z,2.40
2019-02-22T21:40:30.252Z,3.17
2019-02-22T21:42:57.344Z,2.73
2019-02-22T21:45:24.459Z,2.77
2019-02-22T21:47:55.480Z,2.40
2019-02-22T21:50:20.404Z,2.67
2019-02-22T21:52:47.469Z,2.63
2019-02-22T21:55:14.579Z,2.70
2019-02-22T21:57:41.637Z,2.60
2019-02-22T22:00:08.745Z,3.07
2019-02-22T22:02:35.820Z,2.80
2019-02-22T22:05:03.029Z,2.90
2019-02-22T22:07:30.106Z,3.40
2019-02-22T22:09:57.197Z,3.33
2019-02-22T22:12:24.281Z,2.83
2019-02-22T22:14:51.427Z,3.40
2019-02-22T22:17:18.956Z,3.20
2019-02-22T22:19:46.087Z,3.37
2019-02-22T22:22:13.175Z,3.17
2019-02-22T22:24:40.237Z,3.00
2019-02-22T22:27:07.325Z,3.33
2019-02-22T22:29:34.392Z,2.70
2019-02-22T22:32:01.488Z,3.37
2019-02-22T22:34:28.623Z,2.87
2019-02-22T22:36:55.669Z,3.43
2019-02-22T22:39:22.775Z,2.90
2019-02-22T22:41:49.841Z,2.93
2019-02-22T22:44:16.934Z,3.13
2019-02-22T22:46:44.029Z,3.50
2019-02-22T22:49:11.088Z,2.67
2019-02-22T22:51:38.183Z,2.50
2019-02-22T22:54:05.412Z,2.40
2019-02-22T22:56:32.466Z,3.23
2019-02-22T22:58:59.574Z,2.90
2019-02-22T23:01:26.634Z,3.17
2019-02-22T23:03:53.825Z,3.10
2019-02-22T23:06:20.892Z,2.80
2019-02-22T23:08:48.053Z,3.13
2019-02-22T23:11:15.118Z,2.97
2019-02-22T23:13:42.233Z,2.90
2019-02-22T23:16:09.350Z,2.90
2019-02-22T23:18:36.446Z,3.03
2019-02-22T23:21:03.506Z,2.97
2019-02-22T23:23:30.807Z,2.90
2019-02-22T23:25:57.866Z,3.00
2019-02-22T23:28:24.952Z,3.03
2019-02-22T23:30:52.017Z,3.60
2019-02-22T23:33:19.199Z,2.83
2019-02-22T23:35:46.440Z,3.10
2019-02-22T23:38:13.524Z,3.90
2019-02-22T23:40:40.623Z,2.77
2019-02-22T23:43:07.678Z,3.20
2019-02-22T23:45:34.733Z,3.67
2019-02-22T23:48:01.982Z,3.90
2019-02-22T23:50:29.037Z,3.63
2019-02-22T23:52:56.199Z,4.50
2019-02-22T23:55:23.432Z,4.20
2019-02-22T23:57:50.534Z,4.10
